This is the latest recevied weather packets stored in our database for station/object CA4LJZ-10. If no packets are shown the sender has not sent any weather packets the latest 10 day(s).
| Time | Temp. | Humidity | Pressure | Rain* | Wind** | Luminosity | Snow |
|---|---|---|---|---|---|---|---|
| 1777660718 | 18.33° C | 56% | 958.5 hPa | - | - | - | - |
| 1777659817 | 18.33° C | 55% | 958.7 hPa | - | - | - | - |
| 1777658916 | 18.89° C | 54% | 958.8 hPa | - | - | - | - |
| 1777658014 | 17.78° C | 56% | 958.5 hPa | - | - | - | - |
| 1777657113 | 17.22° C | 57% | 958.4 hPa | - | - | - | - |
| 1777656213 | 18.89° C | 52% | 958.5 hPa | - | - | - | - |
| 1777655311 | 20° C | 51% | 958.6 hPa | - | - | - | - |
| 1777654410 | 20° C | 52% | 958.5 hPa | - | - | - | - |
| 1777653509 | 18.33° C | 55% | 958.6 hPa | - | - | - | - |
| 1777652608 | 18.33° C | 58% | 958.7 hPa | - | - | - | - |
| 1777651708 | 16.67° C | 61% | 958.5 hPa | - | - | - | - |
| 1777650807 | 17.78° C | 57% | 958.7 hPa | - | - | - | - |
| 1777649906 | 18.89° C | 55% | 958.8 hPa | - | - | - | - |
| 1777649005 | 17.78° C | 58% | 958.7 hPa | - | - | - | - |
| 1777648104 | 16.67° C | 62% | 958.6 hPa | - | - | - | - |
| 1777647203 | 16.11° C | 64% | 958.4 hPa | - | - | - | - |
| 1777646302 | 15.56° C | 65% | 958.2 hPa | - | - | - | - |
| 1777645400 | 16.11° C | 64% | 958.4 hPa | - | - | - | - |
| 1777644499 | 15° C | 66% | 958.2 hPa | - | - | - | - |
| 1777643598 | 16.11° C | 63% | 958.3 hPa | - | - | - | - |
| 1777642697 | 16.11° C | 64% | 958 hPa | - | - | - | - |
| 1777641796 | 15° C | 66% | 957.7 hPa | - | - | - | - |
| 1777640896 | 15° C | 66% | 957.6 hPa | - | - | - | - |
| 1777639994 | 16.11° C | 65% | 957.5 hPa | - | - | - | - |
| 1777639118 | 15.56° C | 63% | 957.5 hPa | - | - | - | - |
* Rain since midnight (hover to see other rain measurements)
** Current wind speed in m/s (hover to see current wind gust speed)